createdAt,value
2023-04-15T11:51:33.734Z,102099.41
2023-04-15T11:56:36.951Z,102134.19
2023-04-15T12:01:40.104Z,102126.06
2023-04-15T12:06:42.705Z,102130.22
2023-04-15T12:11:49.948Z,102130.72
2023-04-15T12:17:14.114Z,102138.69
2023-04-15T12:22:18.000Z,102150.13
2023-04-15T12:27:21.445Z,102155.31
2023-04-15T12:32:24.063Z,102165.31
2023-04-15T12:37:26.625Z,102174.78
2023-04-15T12:42:29.308Z,102174.31
2023-04-15T12:47:34.514Z,102187.44
2023-04-15T12:52:37.635Z,102179.75
2023-04-15T12:57:40.215Z,102179.72
2023-04-15T13:02:44.678Z,102190.56
2023-04-15T13:07:49.977Z,102198.22
2023-04-15T13:12:53.924Z,102202.41
2023-04-15T13:17:56.945Z,102208.50
2023-04-15T13:22:59.495Z,102199.53
2023-04-15T13:28:02.082Z,102225.84
2023-04-15T13:33:05.045Z,102228.19
2023-04-15T13:38:07.664Z,102229.81
2023-04-15T13:43:10.513Z,102245.63
2023-04-15T13:48:13.084Z,102239.22
2023-04-15T13:53:16.314Z,102240.44
2023-04-15T13:58:18.795Z,102241.09
2023-04-15T14:03:21.515Z,102250.31
2023-04-15T14:08:26.056Z,102251.53
2023-04-15T14:13:28.903Z,102265.56
2023-04-15T14:18:31.543Z,102271.22
2023-04-15T14:23:34.020Z,102276.38
2023-04-15T14:28:39.692Z,102275.75
2023-04-15T14:33:42.475Z,102286.03
2023-04-15T14:38:45.446Z,102273.81
2023-04-15T14:43:49.165Z,102297.91
2023-04-15T14:48:51.965Z,102299.03
2023-04-15T14:53:54.598Z,102308.84
2023-04-15T14:58:57.107Z,102320.84
2023-04-15T15:04:01.466Z,102338.22
2023-04-15T15:09:05.062Z,102329.97
2023-04-15T15:14:07.724Z,102337.63
2023-04-15T15:19:10.370Z,102319.44
2023-04-15T15:24:16.552Z,102343.19
2023-04-15T15:29:19.023Z,102349.91
2023-04-15T15:34:21.477Z,102353.66
2023-04-15T15:39:25.181Z,102374.34
2023-04-15T15:44:28.056Z,102383.53
2023-04-15T15:49:30.730Z,102375.22
2023-04-15T15:54:33.568Z,102396.56
2023-04-15T15:59:36.095Z,102404.09
2023-04-15T16:04:39.696Z,102414.94
2023-04-15T16:09:42.988Z,102411.81
2023-04-15T16:14:47.538Z,102431.31
2023-04-15T16:19:58.706Z,102434.16
2023-04-15T16:25:03.916Z,102437.88
2023-04-15T16:30:09.326Z,102463.19
2023-04-15T16:35:12.093Z,102469.34
2023-04-15T16:40:15.166Z,102475.25
2023-04-15T16:45:17.901Z,102489.13
2023-04-15T16:50:20.343Z,102483.16
2023-04-15T16:55:22.884Z,102512.84
2023-04-15T17:00:25.392Z,102518.47
2023-04-15T17:10:48.113Z,102530.94
2023-04-15T17:15:50.906Z,102538.72
2023-04-15T17:21:03.059Z,102532.28
2023-04-15T17:26:06.468Z,102548.78
2023-04-15T17:31:09.733Z,102542.78
2023-04-15T17:36:35.232Z,102565.09
2023-04-15T17:41:57.808Z,102565.09
2023-04-15T17:47:39.804Z,102574.41
2023-04-15T17:53:20.661Z,102571.19
2023-04-15T17:58:44.117Z,102580.22
2023-04-15T18:04:09.583Z,102590.91
2023-04-15T18:09:50.873Z,102590.31
2023-04-15T18:15:14.834Z,102593.03
2023-04-15T18:20:37.380Z,102588.00
2023-04-15T18:25:40.048Z,102602.50
2023-04-15T18:30:44.288Z,102592.13
2023-04-15T18:35:49.350Z,102627.47
2023-04-15T18:40:52.853Z,102623.03
2023-04-15T18:45:55.426Z,102629.53
2023-04-15T18:50:58.736Z,102635.00
2023-04-15T18:56:03.536Z,102653.31
2023-04-15T19:01:11.968Z,102652.41
2023-04-15T19:06:14.714Z,102653.16
2023-04-15T19:11:20.787Z,102662.81
2023-04-15T19:16:23.501Z,102668.59
2023-04-15T19:21:26.404Z,102675.22
2023-04-15T19:26:29.061Z,102670.06
2023-04-15T19:31:31.875Z,102689.28
2023-04-15T19:36:34.904Z,102694.78
2023-04-15T19:41:39.034Z,102679.34
2023-04-15T19:46:45.213Z,102699.25
2023-04-15T19:51:51.051Z,102700.81
2023-04-15T19:56:53.472Z,102708.03
2023-04-15T20:01:56.190Z,102717.25
2023-04-15T20:06:58.944Z,102717.25
2023-04-15T20:12:46.978Z,102726.22
2023-04-15T20:17:23.836Z,102726.72
2023-04-15T20:22:26.600Z,102732.69
2023-04-15T20:27:29.158Z,102741.56
2023-04-15T20:32:36.145Z,102731.91
2023-04-15T20:37:40.656Z,102762.16
2023-04-15T20:42:44.022Z,102760.81
2023-04-15T20:47:46.606Z,102763.13
2023-04-15T20:52:49.209Z,102772.97
2023-04-15T20:57:52.120Z,102769.06
2023-04-15T21:03:13.147Z,102774.59
2023-04-15T21:08:15.843Z,102774.34
2023-04-15T21:13:18.383Z,102775.19
2023-04-15T21:18:21.971Z,102780.34
2023-04-15T21:23:24.614Z,102774.19
2023-04-15T21:28:28.545Z,102776.09
2023-04-15T21:33:31.216Z,102792.75
2023-04-15T21:38:34.356Z,102785.53
2023-04-15T21:43:39.894Z,102796.59
2023-04-15T21:48:42.509Z,102800.75
2023-04-15T21:53:45.171Z,102808.03
2023-04-15T21:58:47.671Z,102813.31
2023-04-15T22:03:50.624Z,102825.13
2023-04-15T22:08:57.557Z,102830.63
2023-04-15T22:14:14.204Z,102823.03
2023-04-15T22:19:16.650Z,102835.06
2023-04-15T22:24:38.229Z,102821.78
2023-04-15T22:29:42.357Z,102831.03
2023-04-15T22:34:45.099Z,102843.25
2023-04-15T22:39:48.087Z,102840.56
2023-04-15T22:44:51.735Z,102852.19
2023-04-15T22:49:54.233Z,102850.28
2023-04-15T22:54:56.711Z,102835.63
2023-04-15T22:59:59.351Z,102845.31
2023-04-15T23:05:03.237Z,102853.59
2023-04-15T23:10:16.284Z,102858.97
2023-04-15T23:15:39.714Z,102867.03
2023-04-15T23:20:42.413Z,102864.16
2023-04-15T23:25:44.997Z,102869.94
2023-04-15T23:30:47.441Z,102883.91
2023-04-15T23:35:50.538Z,102889.09
2023-04-15T23:40:53.131Z,102886.34
2023-04-15T23:45:58.063Z,102892.25
2023-04-15T23:51:02.835Z,102896.25
2023-04-15T23:56:05.797Z,102893.00
